sensor_id;sensor_type;location;lat;lon;timestamp;P1;durP1;ratioP1;P2;durP2;ratioP2
33864;SDS011;20159;51.072;13.526;2023-03-31T00:00:44;4.03;;;1.73;;
33864;SDS011;20159;51.072;13.526;2023-03-31T00:03:12;4.18;;;1.48;;
33864;SDS011;20159;51.072;13.526;2023-03-31T00:05:46;2.90;;;1.30;;
33864;SDS011;20159;51.072;13.526;2023-03-31T00:08:12;4.72;;;1.70;;
33864;SDS011;20159;51.072;13.526;2023-03-31T00:10:42;6.10;;;1.67;;
33864;SDS011;20159;51.072;13.526;2023-03-31T00:13:12;6.03;;;2.28;;
33864;SDS011;20159;51.072;13.526;2023-03-31T00:15:38;4.13;;;1.90;;
33864;SDS011;20159;51.072;13.526;2023-03-31T00:18:04;2.55;;;1.50;;
33864;SDS011;20159;51.072;13.526;2023-03-31T00:20:30;7.03;;;1.70;;
33864;SDS011;20159;51.072;13.526;2023-03-31T00:23:02;4.97;;;1.60;;
33864;SDS011;20159;51.072;13.526;2023-03-31T00:25:30;4.35;;;1.50;;
33864;SDS011;20159;51.072;13.526;2023-03-31T00:27:56;7.00;;;1.90;;
33864;SDS011;20159;51.072;13.526;2023-03-31T00:30:21;4.25;;;1.70;;
33864;SDS011;20159;51.072;13.526;2023-03-31T00:32:47;5.45;;;1.67;;
33864;SDS011;20159;51.072;13.526;2023-03-31T00:35:13;3.38;;;1.70;;
33864;SDS011;20159;51.072;13.526;2023-03-31T00:37:38;3.13;;;1.33;;
33864;SDS011;20159;51.072;13.526;2023-03-31T00:40:04;6.18;;;1.75;;
33864;SDS011;20159;51.072;13.526;2023-03-31T00:42:37;4.18;;;1.38;;
33864;SDS011;20159;51.072;13.526;2023-03-31T00:47:46;6.75;;;2.05;;
33864;SDS011;20159;51.072;13.526;2023-03-31T00:50:19;2.80;;;1.65;;
33864;SDS011;20159;51.072;13.526;2023-03-31T00:52:47;2.63;;;1.35;;
33864;SDS011;20159;51.072;13.526;2023-03-31T00:55:20;4.13;;;1.75;;
33864;SDS011;20159;51.072;13.526;2023-03-31T00:57:54;3.50;;;1.50;;
33864;SDS011;20159;51.072;13.526;2023-03-31T01:00:21;7.57;;;2.00;;
33864;SDS011;20159;51.072;13.526;2023-03-31T01:02:49;3.70;;;1.48;;
33864;SDS011;20159;51.072;13.526;2023-03-31T01:05:20;2.63;;;1.40;;
33864;SDS011;20159;51.072;13.526;2023-03-31T01:07:49;4.32;;;1.70;;
33864;SDS011;20159;51.072;13.526;2023-03-31T01:10:19;6.05;;;1.52;;
33864;SDS011;20159;51.072;13.526;2023-03-31T01:12:46;3.72;;;1.70;;
33864;SDS011;20159;51.072;13.526;2023-03-31T01:15:15;4.93;;;1.80;;
33864;SDS011;20159;51.072;13.526;2023-03-31T01:17:41;4.70;;;1.58;;
33864;SDS011;20159;51.072;13.526;2023-03-31T01:23:39;3.95;;;1.63;;
33864;SDS011;20159;51.072;13.526;2023-03-31T01:26:41;7.65;;;2.10;;
33864;SDS011;20159;51.072;13.526;2023-03-31T01:32:34;4.63;;;1.55;;
33864;SDS011;20159;51.072;13.526;2023-03-31T01:40:53;3.63;;;1.70;;
33864;SDS011;20159;51.072;13.526;2023-03-31T01:43:43;5.03;;;1.63;;
33864;SDS011;20159;51.072;13.526;2023-03-31T01:55:34;5.47;;;1.75;;
33864;SDS011;20159;51.072;13.526;2023-03-31T01:58:05;6.18;;;2.10;;
33864;SDS011;20159;51.072;13.526;2023-03-31T02:03:10;5.10;;;1.73;;
33864;SDS011;20159;51.072;13.526;2023-03-31T02:06:04;5.70;;;1.98;;
33864;SDS011;20159;51.072;13.526;2023-03-31T02:08:42;7.30;;;1.95;;
33864;SDS011;20159;51.072;13.526;2023-03-31T02:11:12;8.23;;;2.00;;
33864;SDS011;20159;51.072;13.526;2023-03-31T02:13:41;4.82;;;1.73;;
33864;SDS011;20159;51.072;13.526;2023-03-31T02:16:12;3.35;;;1.50;;
33864;SDS011;20159;51.072;13.526;2023-03-31T02:18:43;4.07;;;1.48;;
33864;SDS011;20159;51.072;13.526;2023-03-31T02:21:13;4.28;;;1.80;;
33864;SDS011;20159;51.072;13.526;2023-03-31T02:23:40;6.18;;;1.73;;
33864;SDS011;20159;51.072;13.526;2023-03-31T02:26:15;4.18;;;1.60;;
33864;SDS011;20159;51.072;13.526;2023-03-31T02:28:44;4.28;;;1.75;;
33864;SDS011;20159;51.072;13.526;2023-03-31T02:31:24;5.07;;;2.00;;
33864;SDS011;20159;51.072;13.526;2023-03-31T02:33:58;4.13;;;1.52;;
33864;SDS011;20159;51.072;13.526;2023-03-31T02:36:23;6.05;;;2.40;;
33864;SDS011;20159;51.072;13.526;2023-03-31T02:38:51;4.07;;;1.73;;
33864;SDS011;20159;51.072;13.526;2023-03-31T02:41:25;4.65;;;2.22;;
33864;SDS011;20159;51.072;13.526;2023-03-31T02:43:51;4.15;;;2.05;;
33864;SDS011;20159;51.072;13.526;2023-03-31T02:46:16;5.60;;;2.22;;
33864;SDS011;20159;51.072;13.526;2023-03-31T02:48:43;4.55;;;2.00;;
33864;SDS011;20159;51.072;13.526;2023-03-31T02:53:59;3.83;;;1.55;;
33864;SDS011;20159;51.072;13.526;2023-03-31T03:00:02;7.35;;;1.80;;
33864;SDS011;20159;51.072;13.526;2023-03-31T03:05:31;5.28;;;1.80;;
33864;SDS011;20159;51.072;13.526;2023-03-31T03:08:35;5.25;;;1.90;;
33864;SDS011;20159;51.072;13.526;2023-03-31T03:11:10;4.43;;;1.70;;
33864;SDS011;20159;51.072;13.526;2023-03-31T03:13:45;4.68;;;1.80;;
33864;SDS011;20159;51.072;13.526;2023-03-31T03:16:16;4.82;;;2.22;;
33864;SDS011;20159;51.072;13.526;2023-03-31T03:18:57;3.85;;;1.70;;
33864;SDS011;20159;51.072;13.526;2023-03-31T03:21:24;4.68;;;1.77;;
33864;SDS011;20159;51.072;13.526;2023-03-31T03:23:50;4.20;;;1.98;;
33864;SDS011;20159;51.072;13.526;2023-03-31T03:26:16;4.70;;;1.90;;
33864;SDS011;20159;51.072;13.526;2023-03-31T03:28:45;6.45;;;2.05;;
33864;SDS011;20159;51.072;13.526;2023-03-31T03:31:12;6.95;;;1.92;;
33864;SDS011;20159;51.072;13.526;2023-03-31T03:33:39;5.70;;;1.88;;
33864;SDS011;20159;51.072;13.526;2023-03-31T03:36:05;4.13;;;1.58;;
33864;SDS011;20159;51.072;13.526;2023-03-31T03:38:31;7.88;;;2.15;;
33864;SDS011;20159;51.072;13.526;2023-03-31T03:40:57;5.38;;;2.20;;
33864;SDS011;20159;51.072;13.526;2023-03-31T03:43:23;3.30;;;1.70;;
33864;SDS011;20159;51.072;13.526;2023-03-31T03:45:49;3.83;;;1.50;;
33864;SDS011;20159;51.072;13.526;2023-03-31T03:48:15;5.18;;;1.80;;
33864;SDS011;20159;51.072;13.526;2023-03-31T03:50:40;6.43;;;2.10;;
33864;SDS011;20159;51.072;13.526;2023-03-31T03:53:06;5.93;;;2.10;;
33864;SDS011;20159;51.072;13.526;2023-03-31T03:55:32;4.40;;;1.92;;
33864;SDS011;20159;51.072;13.526;2023-03-31T03:57:58;6.38;;;1.83;;
33864;SDS011;20159;51.072;13.526;2023-03-31T04:00:23;4.93;;;1.35;;
33864;SDS011;20159;51.072;13.526;2023-03-31T04:02:49;4.43;;;1.58;;
33864;SDS011;20159;51.072;13.526;2023-03-31T04:05:15;5.38;;;1.67;;
33864;SDS011;20159;51.072;13.526;2023-03-31T04:07:41;3.97;;;1.90;;
33864;SDS011;20159;51.072;13.526;2023-03-31T04:10:10;3.75;;;1.58;;
33864;SDS011;20159;51.072;13.526;2023-03-31T04:12:35;7.90;;;1.83;;
33864;SDS011;20159;51.072;13.526;2023-03-31T04:15:01;3.83;;;1.65;;
33864;SDS011;20159;51.072;13.526;2023-03-31T04:17:27;3.72;;;1.85;;
33864;SDS011;20159;51.072;13.526;2023-03-31T04:20:00;5.28;;;1.80;;
33864;SDS011;20159;51.072;13.526;2023-03-31T04:22:30;7.63;;;1.88;;
33864;SDS011;20159;51.072;13.526;2023-03-31T04:25:02;6.45;;;1.77;;
33864;SDS011;20159;51.072;13.526;2023-03-31T04:27:29;4.55;;;1.58;;
33864;SDS011;20159;51.072;13.526;2023-03-31T04:30:00;6.65;;;2.00;;
33864;SDS011;20159;51.072;13.526;2023-03-31T04:32:26;4.20;;;1.58;;
33864;SDS011;20159;51.072;13.526;2023-03-31T04:34:52;5.78;;;1.55;;
33864;SDS011;20159;51.072;13.526;2023-03-31T04:37:27;3.78;;;1.70;;
33864;SDS011;20159;51.072;13.526;2023-03-31T04:39:58;4.80;;;1.70;;
33864;SDS011;20159;51.072;13.526;2023-03-31T04:42:32;5.18;;;1.77;;
33864;SDS011;20159;51.072;13.526;2023-03-31T04:44:58;5.43;;;1.73;;
33864;SDS011;20159;51.072;13.526;2023-03-31T04:47:23;6.63;;;1.55;;
33864;SDS011;20159;51.072;13.526;2023-03-31T04:49:49;6.40;;;1.75;;
33864;SDS011;20159;51.072;13.526;2023-03-31T04:52:14;6.97;;;2.08;;
33864;SDS011;20159;51.072;13.526;2023-03-31T04:54:40;6.10;;;1.92;;
33864;SDS011;20159;51.072;13.526;2023-03-31T04:57:09;4.03;;;1.70;;
33864;SDS011;20159;51.072;13.526;2023-03-31T04:59:35;7.35;;;1.80;;
33864;SDS011;20159;51.072;13.526;2023-03-31T05:02:00;4.00;;;1.77;;
33864;SDS011;20159;51.072;13.526;2023-03-31T05:04:26;6.65;;;2.00;;
33864;SDS011;20159;51.072;13.526;2023-03-31T05:06:51;4.10;;;1.52;;
33864;SDS011;20159;51.072;13.526;2023-03-31T05:09:17;5.20;;;1.92;;
33864;SDS011;20159;51.072;13.526;2023-03-31T05:11:44;6.53;;;2.17;;
33864;SDS011;20159;51.072;13.526;2023-03-31T05:14:09;4.85;;;1.88;;
33864;SDS011;20159;51.072;13.526;2023-03-31T05:16:35;3.85;;;1.52;;
33864;SDS011;20159;51.072;13.526;2023-03-31T05:19:01;5.47;;;1.67;;
33864;SDS011;20159;51.072;13.526;2023-03-31T05:21:27;5.28;;;1.83;;
33864;SDS011;20159;51.072;13.526;2023-03-31T05:23:54;5.57;;;2.22;;
33864;SDS011;20159;51.072;13.526;2023-03-31T05:26:20;7.05;;;1.90;;
33864;SDS011;20159;51.072;13.526;2023-03-31T05:28:53;5.78;;;2.13;;
33864;SDS011;20159;51.072;13.526;2023-03-31T05:31:18;7.38;;;2.15;;
33864;SDS011;20159;51.072;13.526;2023-03-31T05:33:51;4.30;;;1.42;;
33864;SDS011;20159;51.072;13.526;2023-03-31T05:36:17;4.95;;;1.77;;
33864;SDS011;20159;51.072;13.526;2023-03-31T05:38:42;4.60;;;1.95;;
33864;SDS011;20159;51.072;13.526;2023-03-31T05:41:08;5.78;;;2.17;;
33864;SDS011;20159;51.072;13.526;2023-03-31T05:43:35;4.05;;;1.63;;
33864;SDS011;20159;51.072;13.526;2023-03-31T05:46:01;5.43;;;2.00;;
33864;SDS011;20159;51.072;13.526;2023-03-31T05:48:27;3.05;;;1.50;;
33864;SDS011;20159;51.072;13.526;2023-03-31T05:50:56;3.85;;;1.70;;
33864;SDS011;20159;51.072;13.526;2023-03-31T05:53:23;4.30;;;1.70;;
33864;SDS011;20159;51.072;13.526;2023-03-31T05:55:49;3.33;;;1.33;;
33864;SDS011;20159;51.072;13.526;2023-03-31T05:58:24;4.50;;;1.70;;
33864;SDS011;20159;51.072;13.526;2023-03-31T06:00:58;4.97;;;2.05;;
33864;SDS011;20159;51.072;13.526;2023-03-31T06:03:25;7.25;;;1.83;;
33864;SDS011;20159;51.072;13.526;2023-03-31T06:05:50;5.28;;;1.60;;
33864;SDS011;20159;51.072;13.526;2023-03-31T06:08:27;2.92;;;1.35;;
33864;SDS011;20159;51.072;13.526;2023-03-31T06:10:53;4.35;;;1.70;;
33864;SDS011;20159;51.072;13.526;2023-03-31T06:13:19;5.25;;;1.75;;
33864;SDS011;20159;51.072;13.526;2023-03-31T06:15:55;3.92;;;1.83;;
33864;SDS011;20159;51.072;13.526;2023-03-31T06:18:21;5.28;;;1.50;;
33864;SDS011;20159;51.072;13.526;2023-03-31T06:20:47;4.68;;;1.83;;
33864;SDS011;20159;51.072;13.526;2023-03-31T06:23:13;3.22;;;1.45;;
33864;SDS011;20159;51.072;13.526;2023-03-31T06:25:38;5.60;;;1.55;;
33864;SDS011;20159;51.072;13.526;2023-03-31T06:28:04;3.28;;;1.50;;
33864;SDS011;20159;51.072;13.526;2023-03-31T06:30:33;2.95;;;1.20;;
33864;SDS011;20159;51.072;13.526;2023-03-31T06:32:59;4.78;;;1.48;;
33864;SDS011;20159;51.072;13.526;2023-03-31T06:35:25;3.05;;;0.93;;
33864;SDS011;20159;51.072;13.526;2023-03-31T06:37:50;3.40;;;1.20;;
33864;SDS011;20159;51.072;13.526;2023-03-31T06:40:16;3.63;;;1.30;;
33864;SDS011;20159;51.072;13.526;2023-03-31T06:42:42;4.30;;;1.50;;
33864;SDS011;20159;51.072;13.526;2023-03-31T06:45:07;4.75;;;1.38;;
33864;SDS011;20159;51.072;13.526;2023-03-31T06:47:33;5.18;;;1.40;;
33864;SDS011;20159;51.072;13.526;2023-03-31T06:50:01;4.43;;;1.13;;
33864;SDS011;20159;51.072;13.526;2023-03-31T06:52:28;4.53;;;1.70;;
33864;SDS011;20159;51.072;13.526;2023-03-31T06:54:54;3.53;;;1.52;;
33864;SDS011;20159;51.072;13.526;2023-03-31T06:57:20;3.40;;;1.40;;
33864;SDS011;20159;51.072;13.526;2023-03-31T06:59:45;4.50;;;1.63;;
33864;SDS011;20159;51.072;13.526;2023-03-31T07:02:11;5.90;;;1.60;;
33864;SDS011;20159;51.072;13.526;2023-03-31T07:04:36;4.65;;;1.63;;
33864;SDS011;20159;51.072;13.526;2023-03-31T07:07:02;3.10;;;1.42;;
33864;SDS011;20159;51.072;13.526;2023-03-31T07:09:27;3.00;;;1.48;;
33864;SDS011;20159;51.072;13.526;2023-03-31T07:11:53;7.32;;;1.60;;
33864;SDS011;20159;51.072;13.526;2023-03-31T07:14:18;3.95;;;1.25;;
33864;SDS011;20159;51.072;13.526;2023-03-31T07:16:44;4.28;;;1.50;;
33864;SDS011;20159;51.072;13.526;2023-03-31T07:19:09;3.75;;;1.60;;
33864;SDS011;20159;51.072;13.526;2023-03-31T07:21:35;3.85;;;1.77;;
33864;SDS011;20159;51.072;13.526;2023-03-31T07:24:01;8.05;;;1.60;;
33864;SDS011;20159;51.072;13.526;2023-03-31T07:26:27;3.42;;;1.42;;
33864;SDS011;20159;51.072;13.526;2023-03-31T07:28:53;4.43;;;1.50;;
33864;SDS011;20159;51.072;13.526;2023-03-31T07:31:20;5.47;;;1.35;;
33864;SDS011;20159;51.072;13.526;2023-03-31T07:33:46;3.90;;;1.48;;
33864;SDS011;20159;51.072;13.526;2023-03-31T07:36:15;4.10;;;1.48;;
33864;SDS011;20159;51.072;13.526;2023-03-31T07:38:41;4.70;;;1.55;;
33864;SDS011;20159;51.072;13.526;2023-03-31T07:41:14;6.40;;;1.60;;
33864;SDS011;20159;51.072;13.526;2023-03-31T07:43:41;4.38;;;1.70;;
33864;SDS011;20159;51.072;13.526;2023-03-31T07:46:12;7.57;;;1.65;;
33864;SDS011;20159;51.072;13.526;2023-03-31T07:48:39;5.95;;;1.83;;
33864;SDS011;20159;51.072;13.526;2023-03-31T07:51:05;4.25;;;1.48;;
33864;SDS011;20159;51.072;13.526;2023-03-31T07:53:30;5.72;;;1.60;;
33864;SDS011;20159;51.072;13.526;2023-03-31T07:55:56;4.65;;;1.70;;
33864;SDS011;20159;51.072;13.526;2023-03-31T07:58:21;5.40;;;1.98;;
33864;SDS011;20159;51.072;13.526;2023-03-31T08:00:54;5.05;;;1.77;;
33864;SDS011;20159;51.072;13.526;2023-03-31T08:03:20;5.70;;;1.70;;
33864;SDS011;20159;51.072;13.526;2023-03-31T08:05:52;6.00;;;2.00;;
33864;SDS011;20159;51.072;13.526;2023-03-31T08:08:21;3.75;;;1.67;;
33864;SDS011;20159;51.072;13.526;2023-03-31T08:10:47;9.90;;;1.70;;
33864;SDS011;20159;51.072;13.526;2023-03-31T08:13:13;9.30;;;1.90;;
33864;SDS011;20159;51.072;13.526;2023-03-31T08:15:38;5.05;;;1.80;;
33864;SDS011;20159;51.072;13.526;2023-03-31T08:18:04;4.10;;;1.77;;
33864;SDS011;20159;51.072;13.526;2023-03-31T08:20:30;4.97;;;1.70;;
33864;SDS011;20159;51.072;13.526;2023-03-31T08:22:56;4.93;;;1.95;;
33864;SDS011;20159;51.072;13.526;2023-03-31T08:25:22;5.50;;;2.05;;
33864;SDS011;20159;51.072;13.526;2023-03-31T08:27:48;5.25;;;1.75;;
33864;SDS011;20159;51.072;13.526;2023-03-31T08:30:17;5.57;;;1.70;;
33864;SDS011;20159;51.072;13.526;2023-03-31T08:32:44;6.05;;;1.95;;
33864;SDS011;20159;51.072;13.526;2023-03-31T08:35:19;5.20;;;1.80;;
33864;SDS011;20159;51.072;13.526;2023-03-31T08:37:45;4.60;;;1.90;;
33864;SDS011;20159;51.072;13.526;2023-03-31T08:40:13;4.43;;;1.77;;
33864;SDS011;20159;51.072;13.526;2023-03-31T08:42:44;5.25;;;2.30;;
33864;SDS011;20159;51.072;13.526;2023-03-31T08:45:20;5.30;;;2.08;;
33864;SDS011;20159;51.072;13.526;2023-03-31T08:50:31;3.22;;;1.60;;
33864;SDS011;20159;51.072;13.526;2023-03-31T08:55:57;4.80;;;1.40;;
33864;SDS011;20159;51.072;13.526;2023-03-31T08:58:28;3.88;;;1.60;;
33864;SDS011;20159;51.072;13.526;2023-03-31T09:01:21;6.47;;;1.83;;
33864;SDS011;20159;51.072;13.526;2023-03-31T09:12:43;4.35;;;1.40;;
33864;SDS011;20159;51.072;13.526;2023-03-31T09:18:20;4.93;;;1.30;;
33864;SDS011;20159;51.072;13.526;2023-03-31T09:23:45;7.40;;;1.55;;
33864;SDS011;20159;51.072;13.526;2023-03-31T09:26:25;4.85;;;1.35;;
33864;SDS011;20159;51.072;13.526;2023-03-31T09:29:53;3.53;;;1.30;;
33864;SDS011;20159;51.072;13.526;2023-03-31T09:32:13;4.35;;;1.42;;
33864;SDS011;20159;51.072;13.526;2023-03-31T09:35:01;3.15;;;1.42;;
33864;SDS011;20159;51.072;13.526;2023-03-31T09:37:51;3.88;;;1.40;;
33864;SDS011;20159;51.072;13.526;2023-03-31T09:40:18;2.83;;;1.38;;
33864;SDS011;20159;51.072;13.526;2023-03-31T09:42:50;3.03;;;1.40;;
33864;SDS011;20159;51.072;13.526;2023-03-31T09:45:21;4.60;;;1.33;;
33864;SDS011;20159;51.072;13.526;2023-03-31T09:47:51;3.47;;;1.33;;
33864;SDS011;20159;51.072;13.526;2023-03-31T09:50:19;4.68;;;1.65;;
33864;SDS011;20159;51.072;13.526;2023-03-31T09:52:50;2.88;;;1.40;;
33864;SDS011;20159;51.072;13.526;2023-03-31T09:55:20;3.28;;;1.20;;
33864;SDS011;20159;51.072;13.526;2023-03-31T09:57:48;2.35;;;1.30;;
33864;SDS011;20159;51.072;13.526;2023-03-31T10:00:15;2.63;;;1.13;;
33864;SDS011;20159;51.072;13.526;2023-03-31T10:10:35;5.03;;;1.40;;
33864;SDS011;20159;51.072;13.526;2023-03-31T10:13:01;1.85;;;1.05;;
33864;SDS011;20159;51.072;13.526;2023-03-31T10:15:35;3.22;;;1.10;;
33864;SDS011;20159;51.072;13.526;2023-03-31T10:18:02;2.80;;;1.10;;
33864;SDS011;20159;51.072;13.526;2023-03-31T10:20:37;2.65;;;1.25;;
33864;SDS011;20159;51.072;13.526;2023-03-31T10:25:47;2.75;;;1.17;;
33864;SDS011;20159;51.072;13.526;2023-03-31T10:28:14;3.47;;;1.42;;
33864;SDS011;20159;51.072;13.526;2023-03-31T10:30:45;1.70;;;1.02;;
33864;SDS011;20159;51.072;13.526;2023-03-31T10:33:14;3.97;;;1.38;;
33864;SDS011;20159;51.072;13.526;2023-03-31T10:35:43;3.53;;;1.17;;
33864;SDS011;20159;51.072;13.526;2023-03-31T10:38:13;2.83;;;1.30;;
33864;SDS011;20159;51.072;13.526;2023-03-31T10:40:48;2.47;;;1.15;;
33864;SDS011;20159;51.072;13.526;2023-03-31T10:43:16;3.75;;;1.30;;
33864;SDS011;20159;51.072;13.526;2023-03-31T10:45:51;2.40;;;0.95;;
33864;SDS011;20159;51.072;13.526;2023-03-31T10:50:53;2.28;;;1.17;;
33864;SDS011;20159;51.072;13.526;2023-03-31T10:53:22;3.63;;;1.27;;
33864;SDS011;20159;51.072;13.526;2023-03-31T10:55:51;2.88;;;1.33;;
33864;SDS011;20159;51.072;13.526;2023-03-31T11:01:05;2.75;;;0.93;;
33864;SDS011;20159;51.072;13.526;2023-03-31T11:06:05;2.25;;;1.00;;
33864;SDS011;20159;51.072;13.526;2023-03-31T11:09:08;2.40;;;0.95;;
33864;SDS011;20159;51.072;13.526;2023-03-31T11:14:32;2.47;;;0.90;;
33864;SDS011;20159;51.072;13.526;2023-03-31T11:22:39;2.53;;;1.27;;
33864;SDS011;20159;51.072;13.526;2023-03-31T11:25:37;2.00;;;1.10;;
33864;SDS011;20159;51.072;13.526;2023-03-31T11:30:53;2.30;;;1.20;;
33864;SDS011;20159;51.072;13.526;2023-03-31T11:33:50;2.78;;;1.17;;
33864;SDS011;20159;51.072;13.526;2023-03-31T11:42:12;6.68;;;1.42;;
33864;SDS011;20159;51.072;13.526;2023-03-31T11:44:41;2.35;;;1.23;;
33864;SDS011;20159;51.072;13.526;2023-03-31T11:47:13;2.30;;;1.20;;
33864;SDS011;20159;51.072;13.526;2023-03-31T11:50:17;3.05;;;1.17;;
33864;SDS011;20159;51.072;13.526;2023-03-31T11:52:38;1.90;;;1.02;;
33864;SDS011;20159;51.072;13.526;2023-03-31T12:05:50;1.75;;;1.30;;
33864;SDS011;20159;51.072;13.526;2023-03-31T12:08:25;3.33;;;1.40;;
33864;SDS011;20159;51.072;13.526;2023-03-31T12:11:02;3.45;;;1.33;;
33864;SDS011;20159;51.072;13.526;2023-03-31T12:13:45;2.53;;;1.25;;
33864;SDS011;20159;51.072;13.526;2023-03-31T12:16:36;2.28;;;1.02;;
33864;SDS011;20159;51.072;13.526;2023-03-31T12:19:16;2.25;;;1.35;;
33864;SDS011;20159;51.072;13.526;2023-03-31T12:21:54;4.28;;;1.23;;
33864;SDS011;20159;51.072;13.526;2023-03-31T12:24:25;2.22;;;0.93;;
33864;SDS011;20159;51.072;13.526;2023-03-31T12:27:03;3.22;;;1.45;;
33864;SDS011;20159;51.072;13.526;2023-03-31T12:29:47;2.28;;;1.00;;
33864;SDS011;20159;51.072;13.526;2023-03-31T12:32:19;2.33;;;1.30;;
33864;SDS011;20159;51.072;13.526;2023-03-31T12:35:06;3.38;;;1.60;;
33864;SDS011;20159;51.072;13.526;2023-03-31T12:38:05;2.72;;;1.33;;
33864;SDS011;20159;51.072;13.526;2023-03-31T12:43:50;4.28;;;1.30;;
33864;SDS011;20159;51.072;13.526;2023-03-31T12:46:41;2.45;;;1.40;;
33864;SDS011;20159;51.072;13.526;2023-03-31T12:52:16;2.83;;;1.30;;
33864;SDS011;20159;51.072;13.526;2023-03-31T12:57:48;3.88;;;1.70;;
33864;SDS011;20159;51.072;13.526;2023-03-31T13:00:17;3.92;;;1.50;;
33864;SDS011;20159;51.072;13.526;2023-03-31T13:02:48;2.35;;;1.33;;
33864;SDS011;20159;51.072;13.526;2023-03-31T13:08:05;4.43;;;1.75;;
33864;SDS011;20159;51.072;13.526;2023-03-31T13:10:32;5.47;;;1.75;;
33864;SDS011;20159;51.072;13.526;2023-03-31T13:13:17;2.80;;;1.80;;
33864;SDS011;20159;51.072;13.526;2023-03-31T13:15:53;2.78;;;1.70;;
33864;SDS011;20159;51.072;13.526;2023-03-31T13:18:22;2.53;;;1.70;;
33864;SDS011;20159;51.072;13.526;2023-03-31T13:20:58;2.75;;;1.63;;
33864;SDS011;20159;51.072;13.526;2023-03-31T13:23:24;2.88;;;1.85;;
33864;SDS011;20159;51.072;13.526;2023-03-31T13:25:55;3.28;;;2.00;;
33864;SDS011;20159;51.072;13.526;2023-03-31T13:41:47;4.75;;;1.90;;
33864;SDS011;20159;51.072;13.526;2023-03-31T13:47:28;2.55;;;1.90;;
33864;SDS011;20159;51.072;13.526;2023-03-31T13:50:18;2.03;;;1.48;;
33864;SDS011;20159;51.072;13.526;2023-03-31T13:55:54;2.05;;;1.55;;
33864;SDS011;20159;51.072;13.526;2023-03-31T14:01:43;2.40;;;1.30;;
33864;SDS011;20159;51.072;13.526;2023-03-31T14:07:15;3.42;;;1.40;;
33864;SDS011;20159;51.072;13.526;2023-03-31T14:09:45;2.90;;;1.20;;
33864;SDS011;20159;51.072;13.526;2023-03-31T14:14:56;2.10;;;1.20;;
33864;SDS011;20159;51.072;13.526;2023-03-31T14:17:32;2.63;;;0.98;;
33864;SDS011;20159;51.072;13.526;2023-03-31T14:20:07;2.20;;;1.30;;
33864;SDS011;20159;51.072;13.526;2023-03-31T14:25:42;2.67;;;1.00;;
33864;SDS011;20159;51.072;13.526;2023-03-31T14:28:49;1.88;;;0.90;;
33864;SDS011;20159;51.072;13.526;2023-03-31T14:31:40;3.13;;;0.90;;
33864;SDS011;20159;51.072;13.526;2023-03-31T14:36:54;1.95;;;0.90;;
33864;SDS011;20159;51.072;13.526;2023-03-31T14:39:23;1.77;;;1.08;;
33864;SDS011;20159;51.072;13.526;2023-03-31T14:41:52;1.73;;;0.73;;
33864;SDS011;20159;51.072;13.526;2023-03-31T14:44:20;2.85;;;1.10;;
33864;SDS011;20159;51.072;13.526;2023-03-31T14:46:47;1.75;;;1.02;;
33864;SDS011;20159;51.072;13.526;2023-03-31T14:49:25;2.50;;;1.00;;
33864;SDS011;20159;51.072;13.526;2023-03-31T14:51:53;2.08;;;0.93;;
33864;SDS011;20159;51.072;13.526;2023-03-31T14:54:22;1.42;;;0.70;;
33864;SDS011;20159;51.072;13.526;2023-03-31T14:56:52;1.38;;;0.73;;
33864;SDS011;20159;51.072;13.526;2023-03-31T14:59:25;1.20;;;0.80;;
33864;SDS011;20159;51.072;13.526;2023-03-31T15:02:03;1.92;;;0.85;;
33864;SDS011;20159;51.072;13.526;2023-03-31T15:04:30;1.92;;;1.00;;
33864;SDS011;20159;51.072;13.526;2023-03-31T15:07:08;1.60;;;0.80;;
33864;SDS011;20159;51.072;13.526;2023-03-31T15:09:35;1.88;;;0.75;;
33864;SDS011;20159;51.072;13.526;2023-03-31T15:12:03;1.83;;;0.80;;
33864;SDS011;20159;51.072;13.526;2023-03-31T15:14:46;1.50;;;0.80;;
33864;SDS011;20159;51.072;13.526;2023-03-31T15:17:23;1.80;;;0.80;;
33864;SDS011;20159;51.072;13.526;2023-03-31T15:19:53;2.63;;;0.95;;
33864;SDS011;20159;51.072;13.526;2023-03-31T15:22:20;2.85;;;0.90;;
33864;SDS011;20159;51.072;13.526;2023-03-31T15:24:47;1.35;;;0.70;;
33864;SDS011;20159;51.072;13.526;2023-03-31T15:29:52;1.10;;;0.75;;
33864;SDS011;20159;51.072;13.526;2023-03-31T15:32:29;1.55;;;1.00;;
33864;SDS011;20159;51.072;13.526;2023-03-31T15:35:05;1.40;;;0.80;;
33864;SDS011;20159;51.072;13.526;2023-03-31T15:37:41;1.95;;;1.00;;
33864;SDS011;20159;51.072;13.526;2023-03-31T15:40:16;2.30;;;1.10;;
33864;SDS011;20159;51.072;13.526;2023-03-31T15:42:47;1.25;;;0.80;;
33864;SDS011;20159;51.072;13.526;2023-03-31T15:48:15;1.73;;;0.90;;
33864;SDS011;20159;51.072;13.526;2023-03-31T15:50:43;2.35;;;1.10;;
33864;SDS011;20159;51.072;13.526;2023-03-31T15:53:20;3.20;;;1.40;;
33864;SDS011;20159;51.072;13.526;2023-03-31T15:55:49;3.72;;;1.40;;
33864;SDS011;20159;51.072;13.526;2023-03-31T15:58:19;2.35;;;1.10;;
33864;SDS011;20159;51.072;13.526;2023-03-31T16:00:52;2.58;;;1.20;;
33864;SDS011;20159;51.072;13.526;2023-03-31T16:03:27;2.22;;;1.13;;
33864;SDS011;20159;51.072;13.526;2023-03-31T16:06:00;2.75;;;1.00;;
33864;SDS011;20159;51.072;13.526;2023-03-31T16:08:30;2.85;;;1.48;;
33864;SDS011;20159;51.072;13.526;2023-03-31T16:11:10;1.95;;;1.00;;
33864;SDS011;20159;51.072;13.526;2023-03-31T16:13:39;2.35;;;1.08;;
33864;SDS011;20159;51.072;13.526;2023-03-31T16:16:10;2.20;;;1.40;;
33864;SDS011;20159;51.072;13.526;2023-03-31T16:18:39;1.45;;;1.23;;
33864;SDS011;20159;51.072;13.526;2023-03-31T16:21:11;2.65;;;1.40;;
33864;SDS011;20159;51.072;13.526;2023-03-31T16:23:39;3.30;;;1.30;;
33864;SDS011;20159;51.072;13.526;2023-03-31T16:26:05;2.25;;;1.00;;
33864;SDS011;20159;51.072;13.526;2023-03-31T16:28:32;1.70;;;1.00;;
33864;SDS011;20159;51.072;13.526;2023-03-31T16:31:00;2.47;;;0.90;;
33864;SDS011;20159;51.072;13.526;2023-03-31T16:33:28;1.52;;;0.80;;
33864;SDS011;20159;51.072;13.526;2023-03-31T16:35:55;1.88;;;0.90;;
33864;SDS011;20159;51.072;13.526;2023-03-31T16:38:23;3.35;;;0.88;;
33864;SDS011;20159;51.072;13.526;2023-03-31T16:40:51;1.95;;;0.90;;
33864;SDS011;20159;51.072;13.526;2023-03-31T16:43:21;1.65;;;0.85;;
33864;SDS011;20159;51.072;13.526;2023-03-31T16:45:51;2.28;;;1.00;;
33864;SDS011;20159;51.072;13.526;2023-03-31T16:48:23;5.18;;;1.10;;
33864;SDS011;20159;51.072;13.526;2023-03-31T16:50:51;0.95;;;0.75;;
33864;SDS011;20159;51.072;13.526;2023-03-31T16:53:22;1.70;;;0.90;;
33864;SDS011;20159;51.072;13.526;2023-03-31T16:55:50;1.35;;;0.90;;
33864;SDS011;20159;51.072;13.526;2023-03-31T16:58:16;2.30;;;1.10;;
33864;SDS011;20159;51.072;13.526;2023-03-31T17:00:42;1.50;;;0.90;;
33864;SDS011;20159;51.072;13.526;2023-03-31T17:03:09;1.38;;;0.80;;
33864;SDS011;20159;51.072;13.526;2023-03-31T17:05:38;1.67;;;0.88;;
33864;SDS011;20159;51.072;13.526;2023-03-31T17:08:06;3.08;;;1.27;;
33864;SDS011;20159;51.072;13.526;2023-03-31T17:10:32;2.03;;;0.90;;
33864;SDS011;20159;51.072;13.526;2023-03-31T17:12:58;2.45;;;1.33;;
33864;SDS011;20159;51.072;13.526;2023-03-31T17:15:24;1.92;;;1.00;;
33864;SDS011;20159;51.072;13.526;2023-03-31T17:17:49;2.63;;;1.30;;
33864;SDS011;20159;51.072;13.526;2023-03-31T17:20:15;2.78;;;1.20;;
33864;SDS011;20159;51.072;13.526;2023-03-31T17:22:41;3.47;;;1.60;;
33864;SDS011;20159;51.072;13.526;2023-03-31T17:25:06;2.03;;;1.17;;
33864;SDS011;20159;51.072;13.526;2023-03-31T17:27:33;2.60;;;1.40;;